Wetterstation Vordersexau
Wetterdaten: Januar 2013
Datum Temp. A. Feuchte A. Luftdruck Regen Wind Richtung Taupunkt Windchill Windben
01.01.2013 6,7 C 75 % 1009,5 hPa 1,4 l/m 9,6 km/h W 2,6 C 3,4 C 5,3 km/h
02.01.2013 2,7 C 80 % 1023,3 hPa 0,0 l/m 0,1 km/h SO -0,4 C 2,7 C 0,1 km/h
03.01.2013 2,5 C 83 % 1034,0 hPa 0,4 l/m 0,4 km/h S-SO -0,2 C 2,5 C 0,2 km/h
04.01.2013 6,4 C 81 % 1035,2 hPa 0,7 l/m 0,0 km/h SO 3,3 C 6,4 C 0,0 km/h
05.01.2013 6,7 C 80 % 1032,0 hPa 0,0 l/m 0,1 km/h O-NO 3,5 C 6,7 C 0,0 km/h
06.01.2013 6,0 C 84 % 1029,9 hPa 0,0 l/m 0,5 km/h SO 3,5 C 5,9 C 0,3 km/h
07.01.2013 3,8 C 84 % 1026,9 hPa 0,0 l/m 0,6 km/h NW 1,4 C 3,8 C 0,3 km/h
08.01.2013 1,7 C 83 % 1025,3 hPa 0,0 l/m 0,4 km/h S-SO -1,0 C 1,7 C 0,2 km/h
09.01.2013 1,4 C 86 % 1019,8 hPa 0,0 l/m 0,8 km/h W -0,6 C 1,4 C 0,4 km/h
10.01.2013 2,4 C 85 % 1014,0 hPa 4,5 l/m 2,5 km/h W 0,1 C 1,8 C 1,4 km/h
11.01.2013 3,3 C 83 % 1012,8 hPa 3,0 l/m 0,8 km/h NO 0,6 C 3,1 C 0,5 km/h
12.01.2013 2,2 C 83 % 1013,6 hPa 1,0 l/m 2,0 km/h NW -0,5 C 1,6 C 1,1 km/h
13.01.2013 -0,2 C 84 % 1010,8 hPa 0,0 l/m 0,5 km/h NW -2,5 C -0,2 C 0,3 km/h
14.01.2013 -0,6 C 87 % 1010,3 hPa 0,0 l/m 0,2 km/h NW -2,5 C -0,6 C 0,1 km/h
15.01.2013 -0,3 C 86 % 1004,0 hPa 0,5 l/m 3,6 km/h SO -2,3 C -1,6 C 2,0 km/h
16.01.2013 -2,5 C 81 % 1005,7 hPa 0,0 l/m 0,5 km/h O-SO -5,3 C -2,6 C 0,3 km/h
17.01.2013 -3,0 C 86 % 1010,8 hPa 0,0 l/m 0,0 km/h O-SO -5,1 C -3,0 C 0,0 km/h
18.01.2013 -3,1 C 84 % 1005,2 hPa 0,5 l/m 0,1 km/h W-NW -5,5 C -3,1 C 0,1 km/h
19.01.2013 -2,0 C 84 % 992,7 hPa 0,0 l/m 0,2 km/h W-NW -4,3 C -2,0 C 0,1 km/h
20.01.2013 -0,8 C 84 % 990,6 hPa 0,0 l/m 0,3 km/h NW -3,1 C -0,8 C 0,2 km/h
21.01.2013 1,5 C 83 % 996,0 hPa 4,1 l/m 2,6 km/h O-SO -1,1 C 0,5 C 1,5 km/h
22.01.2013 2,1 C 83 % 1001,3 hPa 4,7 l/m 11,3 km/h W -0,5 C -2,2 C 6,3 km/h
23.01.2013 -0,3 C 83 % 1004,2 hPa 0,0 l/m 0,5 km/h W-NW -2,8 C -0,3 C 0,3 km/h
24.01.2013 -1,0 C 85 % 1007,6 hPa 0,0 l/m 0,5 km/h NW -3,1 C -1,0 C 0,3 km/h
25.01.2013 -2,0 C 86 % 1014,8 hPa 0,0 l/m 0,2 km/h NW -4,1 C -2,0 C 0,1 km/h
26.01.2013 -2,4 C 80 % 1011,4 hPa 0,0 l/m 0,5 km/h S-SO -5,5 C -2,4 C 0,3 km/h
27.01.2013 3,0 C 81 % 1008,9 hPa 1,6 l/m 2,6 km/h NO -0,0 C 2,2 C 1,4 km/h
28.01.2013 5,3 C 79 % 1014,6 hPa 2,1 l/m 6,8 km/h O-SO 1,9 C 3,1 C 3,8 km/h
29.01.2013 8,1 C 78 % 1017,5 hPa 1,0 l/m 21,8 km/h W 4,4 C 0,7 C 12,1 km/h
30.01.2013 12,0 C 80 % 1015,8 hPa 3,6 l/m 27,7 km/h W 8,6 C 5,0 C 15,4 km/h
31.01.2013 8,3 C 76 % 1019,8 hPa 2,1 l/m 16,5 km/h W 4,3 C 3,5 C 9,2 km/h
Min-Datum 16.01.13 31.01.13 20.01.13 15 Tage 01.01.13 - 16.01.13 22.01.13 01.01.13
Min-Zeit 19:19 14:19 03:19 - 00:19 - 19:19 06:19 00:19
Minimum -8,4 C 62 % 988,7 hPa - 0,0 km/h - -10,8 C -13,9 C 0,0 km/h
Max-Datum 30.01.13 26.01.13 04.01.13 22.01.13 30.01.13 - 30.01.13 02.01.13 30.01.13
Max-Zeit 11:19 02:19 03:19 01:19 13:19 - 16:19 11:19 13:19
Maximum 14,8 C 88 % 1036,6 hPa 4,7 l/m 55,1 km/h
W
- 10,2 C 11,9 C 30,6 km/h
W
Durchschnitt 2,2 C 83 % 1013,5 hPa #31,2 l/m 3,7 km/h W -0,5 C 1,1 C 2,0 km/h

Durchschnitt Minimum Temp.-0,5 C
Durchschnitt Maximum Temp.5,2 C
www.sexauwetter.de